Time;durP1;ratioP1;P1;durP2;ratioP2;P2;SDS_P1;SDS_P2;PMS_P1;PMS_P2;Temp;Humidity;BMP_temperature;BMP_pressure;BME280_temperature;BME280_humidity;BME280_pressure;Samples;Min_cycle;Max_cycle;Signal;HPM_P1;HPM_P2
2024/03/23 00:01:56;;;;;;;22.80;10.00;;;7.50;99.90;;;;;;6202674;23;20358;-72
2024/03/23 00:04:23;;;;;;;25.93;10.23;;;7.60;99.90;;;;;;6204073;23;20366;-74
2024/03/23 00:06:49;;;;;;;24.67;9.83;;;7.60;99.90;;;;;;6175776;23;20389;-75
2024/03/23 00:09:16;;;;;;;20.10;8.60;;;7.60;99.90;;;;;;6202569;23;20417;-74
2024/03/23 00:11:46;;;;;;;21.70;9.67;;;7.60;99.90;;;;;;6177176;23;20370;-74
2024/03/23 00:14:12;;;;;;;19.70;9.00;;;7.50;99.90;;;;;;6178895;23;20953;-75
2024/03/23 00:16:39;;;;;;;24.13;10.60;;;7.50;99.90;;;;;;6205604;23;20396;-76
2024/03/23 00:19:06;;;;;;;22.40;9.80;;;7.50;99.90;;;;;;6204895;23;20398;-76
2024/03/23 00:21:38;;;;;;;21.87;9.07;;;7.50;99.90;;;;;;6177884;23;20714;-75
2024/03/23 00:24:25;;;;;;;26.93;9.80;;;7.50;99.90;;;;;;6178534;23;20477;-76
2024/03/23 00:26:53;;;;;;;24.50;10.90;;;7.50;99.90;;;;;;6130629;23;20396;-76
2024/03/23 00:29:19;;;;;;;23.97;9.50;;;7.50;99.90;;;;;;6178465;23;20382;-74
2024/03/23 00:31:46;;;;;;;23.57;9.43;;;7.50;99.90;;;;;;6150709;23;20388;-73
2024/03/23 00:34:13;;;;;;;24.40;9.47;;;7.50;99.90;;;;;;6200931;23;20449;-74
2024/03/23 00:36:41;;;;;;;20.73;8.70;;;7.40;99.90;;;;;;6153865;23;20388;-74
2024/03/23 00:39:08;;;;;;;21.07;8.70;;;7.40;99.90;;;;;;6178258;23;20414;-74
2024/03/23 00:41:37;;;;;;;24.43;10.20;;;7.30;99.90;;;;;;6176397;23;20446;-74
2024/03/23 00:44:03;;;;;;;18.93;9.40;;;7.30;99.90;;;;;;6175954;23;20374;-74
2024/03/23 00:46:30;;;;;;;24.97;9.73;;;7.30;99.90;;;;;;6200973;23;20390;-73
2024/03/23 00:48:57;;;;;;;25.33;9.50;;;7.30;99.90;;;;;;6201572;23;20373;-75
2024/03/23 00:51:46;;;;;;;16.37;7.80;;;7.20;99.90;;;;;;6206047;23;20365;-76
2024/03/23 00:54:11;;;;;;;23.17;9.10;;;7.30;99.90;;;;;;6151363;23;20694;-74
2024/03/23 00:56:38;;;;;;;22.60;8.87;;;7.30;99.90;;;;;;6174035;23;20443;-74
2024/03/23 00:59:04;;;;;;;18.03;7.77;;;7.30;99.90;;;;;;6174814;23;20167;-74
2024/03/23 01:01:30;;;;;;;18.93;8.27;;;7.30;99.90;;;;;;6175872;23;20396;-74
2024/03/23 01:03:56;;;;;;;20.03;7.90;;;7.30;99.90;;;;;;6175577;23;20385;-73
2024/03/23 01:06:22;;;;;;;12.23;6.37;;;7.30;99.90;;;;;;6201550;23;20900;-74
2024/03/23 01:08:47;;;;;;;14.40;6.80;;;7.20;99.90;;;;;;6175258;23;20153;-74
2024/03/23 01:11:14;;;;;;;22.07;7.90;;;7.20;99.90;;;;;;6200988;23;20441;-75
2024/03/23 01:13:42;;;;;;;23.57;8.13;;;7.20;99.90;;;;;;6201037;23;20135;-75
2024/03/23 01:16:07;;;;;;;18.27;8.17;;;7.20;99.90;;;;;;6178576;23;20406;-75
2024/03/23 01:18:33;;;;;;;26.87;9.57;;;7.20;99.90;;;;;;6178048;23;20405;-74
2024/03/23 01:20:58;;;;;;;24.63;8.67;;;7.20;99.90;;;;;;6151932;23;20561;-74
2024/03/23 01:23:24;;;;;;;18.60;7.80;;;7.20;99.90;;;;;;6179149;23;20489;-74
2024/03/23 01:25:53;;;;;;;17.77;7.63;;;7.10;99.90;;;;;;6230693;23;20134;-73
2024/03/23 01:28:20;;;;;;;15.77;7.50;;;6.90;99.90;;;;;;6181128;23;20169;-75
2024/03/23 01:30:45;;;;;;;17.73;6.27;;;6.80;99.90;;;;;;6205698;23;20391;-75
2024/03/23 01:33:11;;;;;;;12.90;5.03;;;6.70;99.90;;;;;;6202713;23;20401;-73
2024/03/23 01:35:36;;;;;;;10.23;4.90;;;6.60;99.90;;;;;;6231170;23;20153;-73
2024/03/23 01:38:02;;;;;;;9.00;4.53;;;6.60;99.90;;;;;;6231800;23;20205;-73
2024/03/23 01:40:31;;;;;;;13.33;4.63;;;6.60;99.90;;;;;;6231294;23;20135;-73
2024/03/23 01:42:57;;;;;;;10.63;4.30;;;6.50;99.90;;;;;;6202176;23;20145;-72
2024/03/23 01:45:23;;;;;;;10.67;4.70;;;6.50;99.90;;;;;;6229288;23;20380;-73
2024/03/23 01:47:50;;;;;;;6.20;3.80;;;6.40;99.90;;;;;;6203627;23;20466;-74
2024/03/23 01:50:15;;;;;;;9.03;3.77;;;6.40;99.90;;;;;;6228014;23;20140;-74
2024/03/23 01:52:41;;;;;;;6.67;4.17;;;6.40;99.90;;;;;;6204138;23;20385;-73
2024/03/23 01:55:07;;;;;;;10.60;4.90;;;6.40;99.90;;;;;;6180538;23;20380;-73
2024/03/23 01:57:33;;;;;;;12.20;4.80;;;6.40;99.90;;;;;;6231874;23;20471;-74
2024/03/23 01:59:59;;;;;;;11.43;4.90;;;6.40;99.90;;;;;;6204970;23;20373;-75
2024/03/23 02:02:27;;;;;;;10.23;4.27;;;6.40;99.90;;;;;;6230918;23;20512;-74
2024/03/23 02:04:53;;;;;;;13.47;5.30;;;6.30;99.90;;;;;;6203399;23;20420;-76
2024/03/23 02:07:18;;;;;;;16.20;6.60;;;6.30;99.90;;;;;;6185534;23;20473;-72
2024/03/23 02:09:44;;;;;;;21.90;6.53;;;6.30;99.90;;;;;;6198419;23;20146;-74
2024/03/23 02:12:11;;;;;;;15.00;6.80;;;6.20;99.90;;;;;;6198453;22;20177;-74
2024/03/23 02:14:36;;;;;;;13.43;5.50;;;6.20;99.90;;;;;;6224419;23;20151;-75
2024/03/23 02:17:02;;;;;;;16.60;5.47;;;6.20;99.90;;;;;;6197658;23;20394;-73
2024/03/23 02:19:27;;;;;;;10.87;4.60;;;6.20;99.90;;;;;;6199985;23;20158;-73
2024/03/23 02:21:53;;;;;;;8.93;4.90;;;6.20;99.90;;;;;;6198796;23;20143;-72
2024/03/23 02:24:18;;;;;;;9.20;4.40;;;6.20;99.90;;;;;;6198688;23;20145;-74
2024/03/23 02:26:48;;;;;;;7.63;3.80;;;6.20;99.90;;;;;;6198912;23;20469;-74
2024/03/23 02:29:14;;;;;;;7.50;4.77;;;6.20;99.90;;;;;;6201915;23;20421;-74
2024/03/23 02:31:40;;;;;;;9.50;4.90;;;6.20;99.90;;;;;;6201573;23;20367;-73
2024/03/23 02:34:06;;;;;;;10.47;3.90;;;6.10;99.90;;;;;;6175697;23;20386;-73
2024/03/23 02:36:31;;;;;;;15.20;5.40;;;6.10;99.90;;;;;;6199656;23;20425;-76
2024/03/23 02:38:57;;;;;;;11.97;4.80;;;5.90;99.90;;;;;;6201030;23;20174;-71
2024/03/23 02:41:23;;;;;;;7.90;4.57;;;5.60;99.90;;;;;;6198749;23;20137;-72
2024/03/23 02:43:50;;;;;;;10.43;3.77;;;5.40;99.90;;;;;;6196815;23;20582;-73
2024/03/23 02:46:15;;;;;;;7.33;3.50;;;5.20;99.90;;;;;;6197315;23;20382;-73
2024/03/23 02:48:41;;;;;;;6.23;3.00;;;5.20;99.90;;;;;;6190726;23;20735;-72
2024/03/23 02:51:07;;;;;;;6.80;2.83;;;5.10;99.90;;;;;;6187035;23;20166;-72
2024/03/23 02:53:32;;;;;;;5.40;2.13;;;5.10;99.90;;;;;;6187101;23;20568;-73
2024/03/23 02:55:58;;;;;;;5.03;2.80;;;5.10;99.90;;;;;;6210532;23;20253;-72
2024/03/23 02:58:24;;;;;;;3.80;2.10;;;5.10;99.90;;;;;;6187381;23;20135;-72
2024/03/23 03:00:50;;;;;;;5.60;2.70;;;5.10;99.90;;;;;;6186699;23;20594;-73
2024/03/23 03:03:15;;;;;;;3.93;2.10;;;5.20;99.90;;;;;;6187275;23;20587;-73
2024/03/23 03:05:41;;;;;;;4.60;1.97;;;5.20;99.90;;;;;;6185813;23;20408;-72
2024/03/23 03:08:07;;;;;;;4.43;1.90;;;5.20;99.90;;;;;;6194085;23;20186;-72
2024/03/23 03:10:34;;;;;;;5.40;2.13;;;5.20;99.90;;;;;;6190944;23;20214;-73
2024/03/23 03:13:00;;;;;;;3.20;2.20;;;5.20;99.90;;;;;;6210189;23;20131;-75
2024/03/23 03:15:26;;;;;;;4.30;2.10;;;5.20;99.90;;;;;;6186250;23;20497;-72
2024/03/23 03:17:51;;;;;;;2.93;1.70;;;5.20;99.90;;;;;;6185092;23;20421;-72
2024/03/23 03:20:17;;;;;;;4.63;2.07;;;5.20;99.90;;;;;;6185430;23;20205;-73
2024/03/23 03:22:43;;;;;;;4.20;2.00;;;5.20;99.90;;;;;;6185974;23;20528;-72
2024/03/23 03:25:09;;;;;;;3.13;2.10;;;5.30;99.90;;;;;;6188900;23;20390;-72
2024/03/23 03:27:35;;;;;;;2.93;2.07;;;5.30;99.90;;;;;;6186983;23;20980;-72
2024/03/23 03:30:02;;;;;;;4.77;2.03;;;5.30;99.90;;;;;;6209976;23;20130;-72
2024/03/23 03:32:29;;;;;;;3.00;1.77;;;5.30;99.90;;;;;;6186876;23;20370;-72
2024/03/23 03:34:55;;;;;;;3.63;1.80;;;5.30;99.90;;;;;;6185442;23;20365;-72
2024/03/23 03:37:20;;;;;;;5.80;2.70;;;5.30;99.90;;;;;;6186687;23;20410;-72
2024/03/23 03:39:46;;;;;;;4.10;1.87;;;5.30;99.90;;;;;;6187547;23;20392;-75
2024/03/23 03:42:11;;;;;;;2.80;1.70;;;5.30;99.90;;;;;;6186614;23;20158;-73
2024/03/23 03:44:37;;;;;;;2.80;1.50;;;5.30;99.90;;;;;;6185073;23;20137;-73
2024/03/23 03:47:03;;;;;;;2.00;1.27;;;5.30;99.90;;;;;;6186187;23;20188;-73
2024/03/23 03:49:28;;;;;;;3.03;1.83;;;5.30;99.90;;;;;;6185183;23;20158;-73
2024/03/23 03:51:54;;;;;;;2.03;1.23;;;5.30;99.90;;;;;;6186147;23;20207;-73
2024/03/23 03:54:20;;;;;;;2.20;1.43;;;5.30;99.90;;;;;;6184394;23;20139;-72
2024/03/23 03:56:46;;;;;;;3.30;1.57;;;5.20;99.90;;;;;;6186461;23;20190;-72
2024/03/23 03:59:11;;;;;;;1.90;1.40;;;5.20;99.90;;;;;;6191581;23;20362;-72
2024/03/23 04:01:37;;;;;;;2.77;1.20;;;5.20;99.90;;;;;;6192022;23;20188;-72
2024/03/23 04:04:02;;;;;;;3.30;1.37;;;5.10;99.90;;;;;;6196199;23;20189;-74
2024/03/23 04:06:28;;;;;;;2.23;1.53;;;5.10;99.90;;;;;;6197681;23;20179;-72
2024/03/23 04:08:54;;;;;;;5.83;1.90;;;5.10;99.90;;;;;;6192015;23;20191;-73
2024/03/23 04:11:19;;;;;;;6.17;1.80;;;5.10;99.90;;;;;;6217563;23;20127;-71
2024/03/23 04:13:45;;;;;;;3.93;1.80;;;5.10;99.90;;;;;;6193618;23;20135;-73
2024/03/23 04:16:10;;;;;;;6.43;1.77;;;5.10;99.90;;;;;;6191723;23;20420;-73
2024/03/23 04:18:36;;;;;;;5.73;2.10;;;5.10;99.90;;;;;;6192967;23;20169;-73
2024/03/23 04:21:02;;;;;;;5.93;2.33;;;5.10;99.90;;;;;;6192285;23;20134;-73
2024/03/23 04:23:28;;;;;;;8.43;1.60;;;5.10;99.90;;;;;;6193386;23;20158;-72
2024/03/23 04:25:54;;;;;;;5.60;1.67;;;5.10;99.90;;;;;;6198518;23;20394;-73
2024/03/23 04:28:19;;;;;;;4.70;1.70;;;5.10;99.90;;;;;;6198496;23;20599;-71
2024/03/23 04:30:45;;;;;;;8.13;2.13;;;5.10;99.90;;;;;;6196557;23;20358;-71
2024/03/23 04:33:11;;;;;;;4.40;1.90;;;5.10;99.90;;;;;;6194067;23;20162;-73
2024/03/23 04:35:36;;;;;;;3.60;2.33;;;5.10;99.90;;;;;;6193821;23;20170;-73
2024/03/23 04:38:02;;;;;;;4.50;2.23;;;5.00;99.90;;;;;;6193403;23;20140;-73
2024/03/23 04:40:28;;;;;;;4.57;1.77;;;5.00;99.90;;;;;;6191550;23;20479;-74
2024/03/23 04:42:53;;;;;;;4.50;1.83;;;5.00;99.90;;;;;;6192925;23;20520;-73
2024/03/23 04:45:19;;;;;;;4.77;1.90;;;5.10;99.90;;;;;;6192812;23;20146;-72
2024/03/23 04:47:44;;;;;;;4.33;1.97;;;5.10;99.90;;;;;;6193319;23;20444;-72
2024/03/23 04:50:10;;;;;;;2.17;1.50;;;5.10;99.90;;;;;;6215405;23;20142;-73
2024/03/23 04:52:37;;;;;;;2.43;1.40;;;5.10;99.90;;;;;;6185513;23;20185;-71
2024/03/23 04:55:02;;;;;;;2.90;1.53;;;5.10;99.90;;;;;;6185582;23;20366;-73
2024/03/23 04:57:29;;;;;;;1.73;1.20;;;5.20;99.90;;;;;;6188698;23;20170;-72
2024/03/23 04:59:55;;;;;;;1.47;1.00;;;5.20;99.90;;;;;;6189951;23;20701;-73
2024/03/23 05:02:21;;;;;;;1.10;0.80;;;5.20;99.90;;;;;;6187662;23;20508;-72
2024/03/23 05:04:47;;;;;;;1.70;1.10;;;5.30;99.90;;;;;;6192698;23;20150;-73
2024/03/23 05:07:13;;;;;;;1.07;0.80;;;5.40;99.90;;;;;;6188672;23;20438;-73
2024/03/23 05:09:39;;;;;;;1.50;0.87;;;5.30;99.90;;;;;;6187367;23;20142;-72
2024/03/23 05:12:05;;;;;;;1.53;1.23;;;5.30;99.90;;;;;;6186283;23;20142;-71
2024/03/23 05:14:30;;;;;;;2.40;1.00;;;5.30;99.90;;;;;;6194365;23;20198;-73
2024/03/23 05:16:56;;;;;;;1.60;0.90;;;5.30;99.90;;;;;;6195277;23;20175;-72
2024/03/23 05:19:22;;;;;;;1.83;1.27;;;5.30;99.90;;;;;;6193547;23;20142;-74
2024/03/23 05:21:47;;;;;;;1.33;0.93;;;5.30;99.90;;;;;;6194568;23;20466;-73
2024/03/23 05:24:13;;;;;;;1.17;0.87;;;5.30;99.90;;;;;;6195853;23;20362;-73
2024/03/23 05:26:39;;;;;;;1.90;1.20;;;5.40;99.90;;;;;;6199930;23;20178;-75
2024/03/23 05:29:06;;;;;;;1.40;0.90;;;5.40;99.90;;;;;;6160205;23;20183;-73
2024/03/23 05:31:32;;;;;;;1.80;1.10;;;5.30;99.90;;;;;;6163433;23;20147;-72
2024/03/23 05:33:59;;;;;;;1.73;1.20;;;5.30;99.90;;;;;;6163054;23;20870;-74
2024/03/23 05:36:24;;;;;;;1.87;1.00;;;5.30;99.90;;;;;;6162480;23;20218;-73
2024/03/23 05:38:50;;;;;;;1.50;1.03;;;5.30;99.90;;;;;;6164445;23;20798;-72
2024/03/23 05:41:16;;;;;;;1.30;0.90;;;5.30;99.90;;;;;;6165316;23;20215;-73
2024/03/23 05:43:41;;;;;;;1.73;0.87;;;5.30;99.90;;;;;;6165283;23;20187;-73
2024/03/23 05:46:08;;;;;;;1.00;0.70;;;5.30;99.90;;;;;;6164280;23;20163;-73
2024/03/23 05:48:36;;;;;;;2.10;1.43;;;5.30;99.90;;;;;;6164341;23;20190;-74
2024/03/23 05:51:01;;;;;;;1.93;1.10;;;5.20;99.90;;;;;;6165632;23;20359;-72
2024/03/23 05:53:30;;;;;;;1.30;0.87;;;5.20;99.90;;;;;;6166367;23;20458;-71
2024/03/23 05:56:03;;;;;;;2.30;1.00;;;5.20;99.90;;;;;;6165539;23;20600;-74
2024/03/23 05:58:29;;;;;;;1.40;0.90;;;5.20;99.90;;;;;;6140658;23;20373;-75
2024/03/23 06:01:00;;;;;;;1.03;0.70;;;5.20;99.90;;;;;;6193149;23;20378;-72
2024/03/23 06:03:26;;;;;;;1.30;0.80;;;5.20;99.90;;;;;;6197243;23;20366;-72
2024/03/23 06:05:53;;;;;;;3.03;1.13;;;5.30;99.90;;;;;;6195923;23;20389;-73
2024/03/23 06:08:19;;;;;;;1.50;0.90;;;5.30;99.90;;;;;;6197554;23;20186;-72
2024/03/23 06:10:48;;;;;;;1.37;1.00;;;5.30;99.90;;;;;;6200348;23;20639;-73
2024/03/23 06:13:14;;;;;;;2.23;1.20;;;5.30;99.90;;;;;;6203919;23;20367;-75
2024/03/23 06:15:40;;;;;;;3.17;1.20;;;5.30;99.90;;;;;;6200609;23;20771;-73
2024/03/23 06:18:07;;;;;;;1.60;1.10;;;5.30;99.90;;;;;;6197345;23;20365;-72
2024/03/23 06:20:33;;;;;;;1.77;1.10;;;5.30;99.90;;;;;;6197309;23;20143;-73
2024/03/23 06:23:03;;;;;;;1.93;1.07;;;5.20;99.90;;;;;;6176048;23;20385;-74
2024/03/23 06:25:29;;;;;;;1.13;0.80;;;5.20;99.90;;;;;;6197612;23;20362;-72
2024/03/23 06:27:55;;;;;;;1.50;0.90;;;5.30;99.90;;;;;;6196868;23;20444;-73
2024/03/23 06:30:20;;;;;;;1.70;1.10;;;5.20;99.90;;;;;;6196039;23;20361;-73
2024/03/23 06:32:46;;;;;;;1.53;1.00;;;5.20;99.90;;;;;;6200529;23;20131;-72
2024/03/23 06:35:12;;;;;;;1.73;1.20;;;5.20;99.90;;;;;;6198984;23;20206;-73
2024/03/23 06:37:38;;;;;;;2.00;1.10;;;5.10;99.90;;;;;;6197164;23;20178;-74
2024/03/23 06:40:08;;;;;;;2.00;1.20;;;5.10;99.90;;;;;;6196857;23;20135;-72
2024/03/23 06:42:34;;;;;;;1.90;1.13;;;5.10;99.90;;;;;;6200709;23;20413;-73
2024/03/23 06:44:59;;;;;;;2.30;1.50;;;5.20;99.90;;;;;;6200198;23;20404;-74
2024/03/23 06:47:25;;;;;;;4.10;2.13;;;5.20;99.90;;;;;;6203827;23;20247;-71
2024/03/23 06:49:51;;;;;;;2.63;1.60;;;5.20;99.90;;;;;;6201395;23;20143;-72
2024/03/23 06:52:17;;;;;;;5.33;2.17;;;5.20;99.90;;;;;;6200583;23;20359;-72
2024/03/23 06:54:44;;;;;;;2.83;1.83;;;5.20;99.90;;;;;;6222494;23;20142;-73
2024/03/23 06:57:13;;;;;;;2.50;1.87;;;5.20;99.90;;;;;;6197925;23;20406;-74
2024/03/23 06:59:39;;;;;;;2.73;1.60;;;5.20;99.90;;;;;;6197739;23;20615;-72
2024/03/23 07:02:08;;;;;;;8.67;2.63;;;5.30;99.90;;;;;;6197813;23;20357;-73
2024/03/23 07:04:35;;;;;;;9.50;3.63;;;5.30;99.90;;;;;;6200022;23;20139;-74
2024/03/23 07:07:02;;;;;;;8.03;3.40;;;5.30;99.90;;;;;;6200818;23;20421;-71
2024/03/23 07:09:29;;;;;;;7.97;3.77;;;5.40;99.90;;;;;;6199052;23;20854;-71
2024/03/23 07:11:56;;;;;;;7.83;4.20;;;5.40;99.90;;;;;;6200814;23;20358;-74
2024/03/23 07:14:22;;;;;;;7.00;3.50;;;5.40;99.90;;;;;;6200081;23;20378;-73
2024/03/23 07:16:49;;;;;;;4.77;3.10;;;5.40;99.90;;;;;;6177697;23;20430;-74
2024/03/23 07:19:17;;;;;;;5.97;3.13;;;5.50;99.90;;;;;;6202544;23;20629;-75
2024/03/23 07:21:46;;;;;;;8.40;3.23;;;5.60;99.90;;;;;;6148926;23;20385;-73
2024/03/23 07:24:12;;;;;;;10.03;3.90;;;5.60;99.90;;;;;;6197992;23;20377;-73
2024/03/23 07:26:38;;;;;;;12.73;5.40;;;5.70;99.90;;;;;;6200252;23;20450;-73
2024/03/23 07:29:06;;;;;;;11.73;5.40;;;5.70;99.90;;;;;;6171413;23;20171;-73
2024/03/23 07:31:32;;;;;;;13.00;6.33;;;5.70;99.90;;;;;;6198558;23;20149;-73
2024/03/23 07:33:58;;;;;;;16.30;8.30;;;5.70;99.90;;;;;;6198208;23;20401;-74
2024/03/23 07:36:24;;;;;;;34.23;10.67;;;5.70;99.90;;;;;;6202768;23;20394;-74
2024/03/23 07:38:51;;;;;;;35.33;11.03;;;5.70;99.90;;;;;;6199054;23;20139;-73
2024/03/23 07:41:18;;;;;;;29.57;11.93;;;5.80;99.90;;;;;;6202313;23;20370;-73
2024/03/23 07:43:46;;;;;;;42.77;12.87;;;5.80;99.90;;;;;;6201794;23;20752;-72
2024/03/23 07:46:14;;;;;;;30.03;11.40;;;5.90;99.90;;;;;;6199272;23;20430;-74
2024/03/23 07:48:42;;;;;;;55.10;17.20;;;5.90;99.90;;;;;;6199639;23;20941;-72
2024/03/23 07:51:09;;;;;;;67.30;19.00;;;6.00;99.90;;;;;;6199931;23;20358;-73
2024/03/23 07:53:37;;;;;;;65.93;18.67;;;6.10;99.90;;;;;;6198448;23;20358;-74
2024/03/23 07:56:08;;;;;;;53.13;18.50;;;6.10;99.90;;;;;;6198094;23;20700;-76
2024/03/23 07:58:34;;;;;;;45.60;16.57;;;6.20;99.90;;;;;;6200530;23;20569;-72
2024/03/23 08:01:05;;;;;;;87.87;23.40;;;6.20;99.90;;;;;;6198385;23;20445;-72
2024/03/23 08:03:31;;;;;;;79.43;22.60;;;6.30;99.90;;;;;;6198394;23;20359;-73
2024/03/23 08:05:58;;;;;;;67.37;22.60;;;6.20;99.90;;;;;;6203013;23;20370;-73
2024/03/23 08:08:23;;;;;;;69.33;22.03;;;6.20;99.90;;;;;;6175778;23;20182;-73
2024/03/23 08:10:50;;;;;;;59.50;21.50;;;6.20;99.90;;;;;;6201201;23;20397;-73
2024/03/23 08:13:16;;;;;;;75.60;23.47;;;6.20;99.90;;;;;;6200342;23;20134;-74
2024/03/23 08:15:41;;;;;;;71.17;21.70;;;6.20;99.90;;;;;;6199080;23;20373;-74
2024/03/23 08:18:07;;;;;;;85.10;24.60;;;6.20;99.90;;;;;;6198031;23;20182;-74
2024/03/23 08:20:33;;;;;;;50.90;19.87;;;6.20;99.90;;;;;;6196391;23;20143;-74
2024/03/23 08:22:59;;;;;;;57.10;20.33;;;6.20;99.90;;;;;;6199794;23;20204;-73
2024/03/23 08:25:24;;;;;;;65.00;21.07;;;6.30;99.90;;;;;;6224135;23;20162;-75
2024/03/23 08:27:50;;;;;;;52.73;15.93;;;6.30;99.90;;;;;;6202295;23;20253;-73
2024/03/23 08:30:16;;;;;;;48.30;14.30;;;6.20;99.90;;;;;;6199554;23;20139;-75
2024/03/23 08:32:42;;;;;;;29.20;10.57;;;6.20;99.90;;;;;;6198978;23;20162;-73
2024/03/23 08:35:10;;;;;;;36.20;13.30;;;6.20;99.90;;;;;;6200653;23;20362;-75
2024/03/23 08:37:38;;;;;;;26.63;12.17;;;6.10;99.90;;;;;;6201364;23;20515;-76
2024/03/23 08:40:04;;;;;;;35.83;13.60;;;6.00;99.90;;;;;;6202251;23;20373;-74
2024/03/23 08:42:30;;;;;;;37.43;14.87;;;5.90;99.90;;;;;;6202261;23;20151;-74
2024/03/23 08:44:56;;;;;;;20.73;12.33;;;5.80;99.90;;;;;;6201650;23;20389;-74
2024/03/23 08:47:22;;;;;;;51.20;17.00;;;5.90;99.90;;;;;;6176970;23;20432;-73
2024/03/23 08:49:47;;;;;;;39.67;15.80;;;6.00;99.90;;;;;;6201518;23;20169;-74
2024/03/23 08:52:14;;;;;;;47.27;15.80;;;6.20;99.90;;;;;;6204157;23;20192;-75
2024/03/23 08:54:40;;;;;;;45.90;15.23;;;6.20;99.90;;;;;;6202794;23;20135;-73
2024/03/23 08:57:07;;;;;;;71.57;16.57;;;6.40;99.90;;;;;;6225432;23;20400;-74
2024/03/23 08:59:33;;;;;;;53.60;17.17;;;6.50;99.90;;;;;;6203091;23;20143;-73
2024/03/23 09:01:59;;;;;;;36.13;15.37;;;6.60;99.90;;;;;;6202749;23;20577;-72
2024/03/23 09:04:25;;;;;;;43.37;15.93;;;6.60;99.90;;;;;;6201472;23;20158;-74
2024/03/23 09:06:51;;;;;;;36.50;16.77;;;6.60;99.90;;;;;;6176636;23;20190;-74
2024/03/23 09:09:16;;;;;;;57.20;15.77;;;6.80;99.90;;;;;;6203990;23;20162;-72
2024/03/23 09:11:43;;;;;;;61.77;16.77;;;7.10;99.90;;;;;;6207203;23;20354;-73
2024/03/23 09:14:09;;;;;;;33.40;15.70;;;7.20;99.90;;;;;;6202759;23;20146;-74
2024/03/23 09:16:35;;;;;;;38.30;15.60;;;7.30;99.90;;;;;;6205093;23;20409;-73
2024/03/23 09:19:01;;;;;;;38.33;16.07;;;7.30;99.90;;;;;;6202510;23;20146;-74
2024/03/23 09:21:27;;;;;;;16.80;11.50;;;7.50;99.90;;;;;;6177670;23;20370;-73
2024/03/23 09:23:54;;;;;;;45.33;12.57;;;7.40;99.90;;;;;;6203284;23;20412;-75
2024/03/23 09:26:20;;;;;;;23.53;11.87;;;7.20;99.90;;;;;;6202345;23;20429;-74
2024/03/23 09:28:50;;;;;;;26.87;9.23;;;6.90;99.90;;;;;;6203328;23;20402;-74
2024/03/23 09:31:15;;;;;;;18.23;7.67;;;6.70;99.90;;;;;;6202741;23;20137;-75
2024/03/23 09:33:41;;;;;;;26.53;9.13;;;6.70;99.90;;;;;;6202382;23;20358;-73
2024/03/23 09:36:08;;;;;;;15.60;7.30;;;6.70;99.90;;;;;;6201351;23;20159;-73
2024/03/23 09:38:33;;;;;;;28.10;8.67;;;6.70;99.90;;;;;;6202955;23;20197;-74
2024/03/23 09:40:59;;;;;;;22.50;9.53;;;6.80;99.90;;;;;;6202883;23;20378;-73
2024/03/23 09:43:25;;;;;;;19.13;7.27;;;6.90;99.90;;;;;;6205751;23;20135;-74
2024/03/23 09:45:54;;;;;;;12.07;5.33;;;7.10;99.90;;;;;;6203838;23;20193;-74
2024/03/23 09:48:20;;;;;;;12.97;5.77;;;7.00;99.90;;;;;;6204275;23;20422;-72
2024/03/23 09:50:48;;;;;;;8.40;4.77;;;7.50;99.90;;;;;;6205122;23;20376;-74
2024/03/23 09:53:15;;;;;;;13.47;4.40;;;8.00;99.90;;;;;;6207349;23;20372;-75
2024/03/23 09:55:43;;;;;;;8.33;3.17;;;8.40;99.90;;;;;;6207098;23;20389;-75
2024/03/23 09:58:13;;;;;;;8.93;3.10;;;9.00;99.90;;;;;;6205254;23;20389;-75
2024/03/23 10:00:39;;;;;;;6.33;3.23;;;9.30;99.90;;;;;;6206462;23;20370;-73
2024/03/23 10:03:07;;;;;;;8.07;3.23;;;9.50;99.90;;;;;;6181487;23;20362;-75
2024/03/23 10:05:34;;;;;;;8.00;2.70;;;9.70;99.90;;;;;;6178853;23;20390;-72
2024/03/23 10:08:17;;;;;;;4.70;3.10;;;9.90;99.90;;;;;;6205839;23;20430;-75
2024/03/23 10:10:45;;;;;;;11.27;2.83;;;10.00;99.90;;;;;;6183916;23;20381;-74
2024/03/23 10:13:25;;;;;;;7.90;2.27;;;10.10;99.90;;;;;;6206475;23;20347;-75
2024/03/23 10:15:59;;;;;;;5.90;2.60;;;10.20;99.90;;;;;;6131982;23;20386;-73
2024/03/23 10:18:28;;;;;;;7.63;2.73;;;10.20;99.90;;;;;;6206807;23;20685;-74
2024/03/23 10:21:13;;;;;;;5.80;2.40;;;10.40;99.90;;;;;;6180740;23;20366;-74
2024/03/23 10:23:44;;;;;;;5.53;2.47;;;10.60;99.90;;;;;;6204516;23;20358;-74
2024/03/23 10:26:28;;;;;;;4.30;2.20;;;10.60;94.00;;;;;;6209982;23;20378;-74
2024/03/23 10:29:12;;;;;;;12.73;2.37;;;10.60;91.20;;;;;;6207993;23;20442;-75
2024/03/23 10:31:41;;;;;;;8.97;2.10;;;10.60;89.10;;;;;;6206684;23;20377;-76
2024/03/23 10:34:15;;;;;;;8.07;2.23;;;10.50;82.10;;;;;;6182875;23;20398;-75
2024/03/23 10:36:45;;;;;;;5.30;1.87;;;10.20;81.40;;;;;;6209393;23;20461;-76
2024/03/23 10:39:11;;;;;;;5.27;1.70;;;10.10;84.10;;;;;;6206746;23;20385;-73
2024/03/23 10:41:42;;;;;;;5.53;1.37;;;10.00;91.40;;;;;;6182517;23;20394;-75
2024/03/23 10:44:09;;;;;;;6.60;2.30;;;10.20;96.50;;;;;;6209830;23;20397;-76
2024/03/23 10:46:37;;;;;;;4.70;1.63;;;10.20;94.00;;;;;;6207662;23;20405;-74
2024/03/23 10:49:03;;;;;;;3.93;1.40;;;10.20;93.40;;;;;;6205844;23;20490;-74
2024/03/23 10:51:29;;;;;;;3.30;1.43;;;10.30;96.80;;;;;;6209250;23;20374;-74
2024/03/23 10:53:56;;;;;;;7.43;2.00;;;10.40;92.80;;;;;;6206101;23;20354;-74
2024/03/23 10:56:22;;;;;;;4.63;2.20;;;10.50;96.50;;;;;;6208792;23;20422;-75
2024/03/23 10:58:50;;;;;;;2.73;1.60;;;10.70;97.50;;;;;;6205423;23;20362;-74
2024/03/23 11:01:19;;;;;;;8.50;2.30;;;11.00;97.80;;;;;;6210077;23;20378;-76
2024/03/23 11:03:46;;;;;;;4.67;2.20;;;11.10;91.90;;;;;;6210918;23;20410;-74
2024/03/23 11:06:38;;;;;;;6.13;1.87;;;11.00;91.70;;;;;;6209941;23;20386;-74
2024/03/23 11:09:24;;;;;;;6.13;1.80;;;10.70;91.00;;;;;;6208424;23;20440;-75
2024/03/23 11:11:51;;;;;;;5.93;1.70;;;10.50;90.50;;;;;;6205311;23;20389;-75
2024/03/23 11:14:26;;;;;;;4.13;1.77;;;10.40;90.90;;;;;;6205631;23;20378;-75
2024/03/23 11:17:09;;;;;;;6.40;1.93;;;10.50;91.60;;;;;;6180553;23;20402;-73
2024/03/23 11:19:40;;;;;;;10.13;2.40;;;10.50;88.50;;;;;;6208153;23;20377;-75
2024/03/23 11:22:07;;;;;;;10.33;2.23;;;10.70;89.50;;;;;;6207350;23;20394;-74
2024/03/23 11:24:34;;;;;;;6.77;1.87;;;10.80;89.40;;;;;;6210494;23;20366;-75
2024/03/23 11:27:18;;;;;;;7.70;1.93;;;10.90;87.50;;;;;;6200440;23;20531;-75
2024/03/23 11:29:54;;;;;;;4.30;1.43;;;10.90;89.00;;;;;;6213714;23;20133;-75
2024/03/23 11:32:21;;;;;;;2.50;1.40;;;10.60;81.60;;;;;;6236600;22;20523;-74
2024/03/23 11:34:47;;;;;;;2.43;1.17;;;10.30;83.70;;;;;;6239921;23;20373;-76
2024/03/23 11:37:16;;;;;;;2.93;0.93;;;9.90;90.50;;;;;;6182143;23;20405;-74
2024/03/23 11:39:42;;;;;;;5.17;1.10;;;9.30;91.50;;;;;;6209404;23;20382;-75
2024/03/23 11:42:09;;;;;;;2.57;1.13;;;8.80;95.60;;;;;;6207700;23;20401;-76
2024/03/23 11:44:34;;;;;;;6.10;1.30;;;8.50;99.90;;;;;;6206039;23;20139;-75
2024/03/23 11:47:10;;;;;;;3.97;1.87;;;8.30;99.90;;;;;;6231467;23;20390;-75
2024/03/23 11:49:40;;;;;;;4.03;1.40;;;8.10;99.90;;;;;;6206280;23;20161;-73
2024/03/23 11:52:33;;;;;;;8.63;2.33;;;8.30;99.90;;;;;;6208739;23;20370;-73
2024/03/23 11:55:07;;;;;;;3.23;1.83;;;8.30;99.90;;;;;;6207200;23;20671;-73
2024/03/23 11:57:34;;;;;;;5.90;1.43;;;8.60;99.90;;;;;;6183503;23;20519;-75
2024/03/23 12:00:00;;;;;;;5.67;2.53;;;8.70;99.90;;;;;;6210031;23;20378;-76
2024/03/23 12:02:29;;;;;;;7.90;2.90;;;8.70;99.90;;;;;;6185217;23;20390;-75
2024/03/23 12:04:56;;;;;;;5.50;2.10;;;8.50;99.90;;;;;;6184805;23;20746;-76
2024/03/23 12:07:22;;;;;;;6.47;3.10;;;8.10;99.90;;;;;;6211517;23;20398;-75
2024/03/23 12:10:06;;;;;;;2.97;1.73;;;7.90;99.90;;;;;;6210686;23;20356;-75
2024/03/23 12:13:03;;;;;;;2.70;1.47;;;7.80;99.90;;;;;;6209112;23;20405;-75
2024/03/23 12:15:29;;;;;;;2.83;1.10;;;7.90;99.90;;;;;;6243857;23;20407;-74
2024/03/23 12:18:19;;;;;;;4.73;1.20;;;8.00;99.90;;;;;;6194936;23;20408;-75
2024/03/23 12:20:53;;;;;;;2.40;1.30;;;8.30;99.90;;;;;;6244769;23;20156;-75
2024/03/23 12:23:21;;;;;;;6.13;2.13;;;8.60;99.60;;;;;;6269955;23;20382;-76
2024/03/23 12:25:50;;;;;;;7.87;1.67;;;8.90;99.90;;;;;;6218145;23;20446;-75
2024/03/23 12:28:17;;;;;;;2.07;1.17;;;9.00;96.20;;;;;;6267239;23;20444;-74
2024/03/23 12:30:42;;;;;;;5.80;1.50;;;9.00;98.00;;;;;;6217101;23;20447;-74
2024/03/23 12:33:08;;;;;;;2.73;1.30;;;9.00;97.80;;;;;;6267561;23;20653;-74
2024/03/23 12:35:36;;;;;;;2.93;1.33;;;8.90;98.30;;;;;;6242789;23;20149;-74
2024/03/23 12:38:04;;;;;;;4.30;1.43;;;8.70;97.10;;;;;;6157994;23;20188;-75
2024/03/23 12:40:36;;;;;;;2.07;1.13;;;8.40;97.60;;;;;;6158813;23;20381;-76
2024/03/23 12:43:09;;;;;;;3.87;1.43;;;8.30;99.00;;;;;;6184085;23;20385;-74
2024/03/23 12:45:36;;;;;;;1.87;1.10;;;8.20;99.90;;;;;;6206134;23;20531;-75
2024/03/23 12:48:03;;;;;;;3.27;1.40;;;8.10;99.90;;;;;;6156892;23;20433;-73
2024/03/23 12:50:32;;;;;;;3.50;1.30;;;8.10;99.90;;;;;;6214898;23;20415;-75
2024/03/23 12:53:01;;;;;;;2.60;1.30;;;8.30;99.90;;;;;;6217943;23;20393;-76